Mountain Home, Texas
Current Conditions -  °F | °C
As of 4:35 PM on Saturday 25 Oct 2014 (Local Time) from KERV Reporting Station
Clear Clear  
Wind Chill: 84°   Ceiling: Unl
Heat Index: 84°   Visibility: 10mi
Dew Point: 55°   Wind: 7mph
Humidity: 36%   Direction: 190°S
Pressure: 30.12"   Gusts: NA
Location:  30.17°N, 99.38°W
Report Text: KERV 252135Z AUTO 19006KT 10SM CLR 29/13 A3012 RMK AO2 T02910126
Loading
Personal Weather Stations






























Interactive Weather Map
Tropical Storm Tracking
New forecast layout! Learn more

10-Day Weather Forecast

Advertisements
Track Severe Weather on mobile